sensor_id;sensor_type;location;lat;lon;timestamp;P1;durP1;ratioP1;P2;durP2;ratioP2
27999;SDS011;15328;50.860;10.562;2022-09-27T00:00:30;0.52;;;0.50;;
27999;SDS011;15328;50.860;10.562;2022-09-27T00:05:31;0.50;;;0.40;;
27999;SDS011;15328;50.860;10.562;2022-09-27T00:10:31;0.57;;;0.40;;
27999;SDS011;15328;50.860;10.562;2022-09-27T00:15:32;0.57;;;0.40;;
27999;SDS011;15328;50.860;10.562;2022-09-27T00:20:33;0.45;;;0.40;;
27999;SDS011;15328;50.860;10.562;2022-09-27T00:25:33;0.40;;;0.40;;
27999;SDS011;15328;50.860;10.562;2022-09-27T00:30:34;0.40;;;0.40;;
27999;SDS011;15328;50.860;10.562;2022-09-27T00:35:34;0.60;;;0.40;;
27999;SDS011;15328;50.860;10.562;2022-09-27T00:40:34;0.50;;;0.30;;
27999;SDS011;15328;50.860;10.562;2022-09-27T00:45:35;0.43;;;0.38;;
27999;SDS011;15328;50.860;10.562;2022-09-27T00:50:36;0.73;;;0.40;;
27999;SDS011;15328;50.860;10.562;2022-09-27T00:55:44;0.28;;;0.28;;
27999;SDS011;15328;50.860;10.562;2022-09-27T01:00:53;0.60;;;0.30;;
27999;SDS011;15328;50.860;10.562;2022-09-27T01:05:56;0.30;;;0.28;;
27999;SDS011;15328;50.860;10.562;2022-09-27T01:11:03;0.30;;;0.30;;
27999;SDS011;15328;50.860;10.562;2022-09-27T01:22:04;0.70;;;0.38;;
27999;SDS011;15328;50.860;10.562;2022-09-27T01:32:52;0.40;;;0.35;;
27999;SDS011;15328;50.860;10.562;2022-09-27T01:38:10;0.40;;;0.25;;
27999;SDS011;15328;50.860;10.562;2022-09-27T01:43:26;1.30;;;0.20;;
27999;SDS011;15328;50.860;10.562;2022-09-27T01:48:32;0.30;;;0.30;;
27999;SDS011;15328;50.860;10.562;2022-09-27T01:53:40;0.30;;;0.30;;
27999;SDS011;15328;50.860;10.562;2022-09-27T01:58:56;0.93;;;0.20;;
27999;SDS011;15328;50.860;10.562;2022-09-27T02:04:10;0.40;;;0.30;;
27999;SDS011;15328;50.860;10.562;2022-09-27T02:09:18;0.20;;;0.10;;
27999;SDS011;15328;50.860;10.562;2022-09-27T02:14:26;0.30;;;0.25;;
27999;SDS011;15328;50.860;10.562;2022-09-27T02:24:52;1.83;;;0.20;;
27999;SDS011;15328;50.860;10.562;2022-09-27T02:29:59;0.47;;;0.20;;
27999;SDS011;15328;50.860;10.562;2022-09-27T02:35:09;0.20;;;0.20;;
27999;SDS011;15328;50.860;10.562;2022-09-27T02:40:14;0.20;;;0.20;;
27999;SDS011;15328;50.860;10.562;2022-09-27T02:45:16;2.08;;;0.20;;
27999;SDS011;15328;50.860;10.562;2022-09-27T03:06:49;0.10;;;0.10;;
27999;SDS011;15328;50.860;10.562;2022-09-27T03:11:52;0.15;;;0.10;;
27999;SDS011;15328;50.860;10.562;2022-09-27T03:16:52;0.10;;;0.10;;
27999;SDS011;15328;50.860;10.562;2022-09-27T03:21:53;0.10;;;0.10;;
27999;SDS011;15328;50.860;10.562;2022-09-27T03:26:53;0.10;;;0.10;;
27999;SDS011;15328;50.860;10.562;2022-09-27T03:31:54;0.10;;;0.10;;
27999;SDS011;15328;50.860;10.562;2022-09-27T03:36:54;0.10;;;0.10;;
27999;SDS011;15328;50.860;10.562;2022-09-27T03:41:54;0.57;;;0.20;;
27999;SDS011;15328;50.860;10.562;2022-09-27T03:46:56;0.80;;;0.30;;
27999;SDS011;15328;50.860;10.562;2022-09-27T03:51:57;0.50;;;0.40;;
27999;SDS011;15328;50.860;10.562;2022-09-27T03:56:58;1.17;;;0.52;;
27999;SDS011;15328;50.860;10.562;2022-09-27T04:01:58;1.60;;;0.98;;
27999;SDS011;15328;50.860;10.562;2022-09-27T04:06:59;1.42;;;0.88;;
27999;SDS011;15328;50.860;10.562;2022-09-27T04:11:59;1.53;;;0.90;;
27999;SDS011;15328;50.860;10.562;2022-09-27T04:16:59;0.88;;;0.70;;
27999;SDS011;15328;50.860;10.562;2022-09-27T04:22:00;1.10;;;0.60;;
27999;SDS011;15328;50.860;10.562;2022-09-27T04:27:00;1.60;;;0.80;;
27999;SDS011;15328;50.860;10.562;2022-09-27T04:32:01;2.10;;;0.90;;
27999;SDS011;15328;50.860;10.562;2022-09-27T04:37:01;1.57;;;0.80;;
27999;SDS011;15328;50.860;10.562;2022-09-27T04:42:02;0.93;;;0.43;;
27999;SDS011;15328;50.860;10.562;2022-09-27T04:47:02;2.17;;;0.55;;
27999;SDS011;15328;50.860;10.562;2022-09-27T04:52:03;3.00;;;0.47;;
27999;SDS011;15328;50.860;10.562;2022-09-27T04:57:04;0.98;;;0.30;;
27999;SDS011;15328;50.860;10.562;2022-09-27T05:02:04;0.73;;;0.38;;
27999;SDS011;15328;50.860;10.562;2022-09-27T05:07:05;0.77;;;0.30;;
27999;SDS011;15328;50.860;10.562;2022-09-27T05:12:05;0.50;;;0.30;;
27999;SDS011;15328;50.860;10.562;2022-09-27T05:17:07;0.20;;;0.20;;
27999;SDS011;15328;50.860;10.562;2022-09-27T05:22:08;0.82;;;0.40;;
27999;SDS011;15328;50.860;10.562;2022-09-27T05:32:12;0.93;;;0.47;;
27999;SDS011;15328;50.860;10.562;2022-09-27T05:37:13;1.15;;;0.40;;
27999;SDS011;15328;50.860;10.562;2022-09-27T05:42:13;0.93;;;0.40;;
27999;SDS011;15328;50.860;10.562;2022-09-27T05:47:14;0.70;;;0.35;;
27999;SDS011;15328;50.860;10.562;2022-09-27T05:52:15;0.40;;;0.23;;
27999;SDS011;15328;50.860;10.562;2022-09-27T05:57:15;0.20;;;0.20;;
27999;SDS011;15328;50.860;10.562;2022-09-27T06:02:15;1.03;;;0.50;;
27999;SDS011;15328;50.860;10.562;2022-09-27T06:07:17;0.43;;;0.20;;
27999;SDS011;15328;50.860;10.562;2022-09-27T06:12:17;0.70;;;0.33;;
27999;SDS011;15328;50.860;10.562;2022-09-27T06:17:19;0.95;;;0.30;;
27999;SDS011;15328;50.860;10.562;2022-09-27T06:22:19;0.30;;;0.20;;
27999;SDS011;15328;50.860;10.562;2022-09-27T06:27:22;1.40;;;0.30;;
27999;SDS011;15328;50.860;10.562;2022-09-27T06:32:23;1.08;;;0.30;;
27999;SDS011;15328;50.860;10.562;2022-09-27T06:37:24;0.32;;;0.30;;
27999;SDS011;15328;50.860;10.562;2022-09-27T06:42:25;0.60;;;0.30;;
27999;SDS011;15328;50.860;10.562;2022-09-27T06:47:26;0.52;;;0.20;;
27999;SDS011;15328;50.860;10.562;2022-09-27T06:52:28;0.45;;;0.28;;
27999;SDS011;15328;50.860;10.562;2022-09-27T06:57:28;1.23;;;0.30;;
27999;SDS011;15328;50.860;10.562;2022-09-27T07:02:48;0.52;;;0.20;;
27999;SDS011;15328;50.860;10.562;2022-09-27T07:07:52;0.25;;;0.20;;
27999;SDS011;15328;50.860;10.562;2022-09-27T07:12:55;0.40;;;0.30;;
27999;SDS011;15328;50.860;10.562;2022-09-27T07:18:00;0.47;;;0.20;;
27999;SDS011;15328;50.860;10.562;2022-09-27T07:23:00;0.32;;;0.20;;
27999;SDS011;15328;50.860;10.562;2022-09-27T07:28:01;0.37;;;0.20;;
27999;SDS011;15328;50.860;10.562;2022-09-27T07:33:03;0.30;;;0.22;;
27999;SDS011;15328;50.860;10.562;2022-09-27T07:38:05;0.80;;;0.30;;
27999;SDS011;15328;50.860;10.562;2022-09-27T07:43:09;0.60;;;0.32;;
27999;SDS011;15328;50.860;10.562;2022-09-27T07:48:14;0.47;;;0.40;;
27999;SDS011;15328;50.860;10.562;2022-09-27T07:53:15;0.55;;;0.50;;
27999;SDS011;15328;50.860;10.562;2022-09-27T07:58:16;0.63;;;0.50;;
27999;SDS011;15328;50.860;10.562;2022-09-27T08:03:16;0.85;;;0.40;;
27999;SDS011;15328;50.860;10.562;2022-09-27T08:08:17;0.70;;;0.40;;
27999;SDS011;15328;50.860;10.562;2022-09-27T08:13:17;1.25;;;0.70;;
27999;SDS011;15328;50.860;10.562;2022-09-27T08:18:19;0.93;;;0.80;;
27999;SDS011;15328;50.860;10.562;2022-09-27T08:23:21;1.20;;;0.95;;
27999;SDS011;15328;50.860;10.562;2022-09-27T08:28:21;1.40;;;0.73;;
27999;SDS011;15328;50.860;10.562;2022-09-27T08:33:22;2.90;;;0.80;;
27999;SDS011;15328;50.860;10.562;2022-09-27T08:38:24;1.95;;;0.70;;
27999;SDS011;15328;50.860;10.562;2022-09-27T08:48:53;0.93;;;0.57;;
27999;SDS011;15328;50.860;10.562;2022-09-27T08:54:16;1.27;;;0.82;;
27999;SDS011;15328;50.860;10.562;2022-09-27T08:59:22;1.00;;;0.82;;
27999;SDS011;15328;50.860;10.562;2022-09-27T09:04:34;1.70;;;0.90;;
27999;SDS011;15328;50.860;10.562;2022-09-27T09:09:42;3.95;;;1.40;;
27999;SDS011;15328;50.860;10.562;2022-09-27T09:31:37;0.90;;;0.70;;
27999;SDS011;15328;50.860;10.562;2022-09-27T09:46:56;1.73;;;0.70;;
27999;SDS011;15328;50.860;10.562;2022-09-27T09:52:04;1.15;;;0.65;;
27999;SDS011;15328;50.860;10.562;2022-09-27T09:57:11;1.20;;;0.70;;
27999;SDS011;15328;50.860;10.562;2022-09-27T10:07:36;2.22;;;1.30;;
27999;SDS011;15328;50.860;10.562;2022-09-27T10:12:38;1.52;;;0.85;;
27999;SDS011;15328;50.860;10.562;2022-09-27T10:17:40;1.67;;;1.10;;
27999;SDS011;15328;50.860;10.562;2022-09-27T10:22:45;2.08;;;1.45;;
27999;SDS011;15328;50.860;10.562;2022-09-27T10:27:51;2.10;;;1.27;;
27999;SDS011;15328;50.860;10.562;2022-09-27T10:33:13;1.80;;;1.10;;
27999;SDS011;15328;50.860;10.562;2022-09-27T10:43:26;2.90;;;1.58;;
27999;SDS011;15328;50.860;10.562;2022-09-27T10:48:36;2.72;;;1.30;;
27999;SDS011;15328;50.860;10.562;2022-09-27T10:53:43;2.85;;;1.48;;
27999;SDS011;15328;50.860;10.562;2022-09-27T10:58:44;2.08;;;1.30;;
27999;SDS011;15328;50.860;10.562;2022-09-27T11:03:52;2.05;;;1.17;;
27999;SDS011;15328;50.860;10.562;2022-09-27T11:08:57;0.88;;;0.57;;
27999;SDS011;15328;50.860;10.562;2022-09-27T11:14:18;2.00;;;0.98;;
27999;SDS011;15328;50.860;10.562;2022-09-27T11:30:20;2.08;;;0.80;;
27999;SDS011;15328;50.860;10.562;2022-09-27T11:41:18;0.98;;;0.70;;
27999;SDS011;15328;50.860;10.562;2022-09-27T11:46:30;1.38;;;0.63;;
27999;SDS011;15328;50.860;10.562;2022-09-27T11:51:37;3.20;;;1.25;;
27999;SDS011;15328;50.860;10.562;2022-09-27T12:07:44;2.22;;;1.15;;
27999;SDS011;15328;50.860;10.562;2022-09-27T12:13:03;2.15;;;1.23;;
27999;SDS011;15328;50.860;10.562;2022-09-27T12:18:13;2.28;;;1.05;;
27999;SDS011;15328;50.860;10.562;2022-09-27T12:29:01;1.20;;;0.82;;
27999;SDS011;15328;50.860;10.562;2022-09-27T12:39:37;1.65;;;1.13;;
27999;SDS011;15328;50.860;10.562;2022-09-27T12:44:40;2.97;;;1.48;;
27999;SDS011;15328;50.860;10.562;2022-09-27T13:16:07;1.58;;;0.70;;
27999;SDS011;15328;50.860;10.562;2022-09-27T13:21:08;2.38;;;0.70;;
27999;SDS011;15328;50.860;10.562;2022-09-27T13:36:54;1.52;;;0.70;;
27999;SDS011;15328;50.860;10.562;2022-09-27T13:42:05;1.92;;;0.70;;
27999;SDS011;15328;50.860;10.562;2022-09-27T13:47:33;2.40;;;0.70;;
27999;SDS011;15328;50.860;10.562;2022-09-27T13:52:41;2.15;;;0.98;;
27999;SDS011;15328;50.860;10.562;2022-09-27T13:57:56;2.80;;;0.77;;
27999;SDS011;15328;50.860;10.562;2022-09-27T14:03:01;1.77;;;0.60;;
27999;SDS011;15328;50.860;10.562;2022-09-27T14:08:15;1.45;;;0.68;;
27999;SDS011;15328;50.860;10.562;2022-09-27T14:13:24;1.50;;;0.50;;
27999;SDS011;15328;50.860;10.562;2022-09-27T14:18:26;1.25;;;0.60;;
27999;SDS011;15328;50.860;10.562;2022-09-27T14:23:28;1.38;;;0.65;;
27999;SDS011;15328;50.860;10.562;2022-09-27T14:28:30;2.03;;;1.02;;
27999;SDS011;15328;50.860;10.562;2022-09-27T14:33:39;1.88;;;1.00;;
27999;SDS011;15328;50.860;10.562;2022-09-27T14:38:39;1.38;;;0.82;;
27999;SDS011;15328;50.860;10.562;2022-09-27T14:43:42;2.42;;;1.40;;
27999;SDS011;15328;50.860;10.562;2022-09-27T14:48:45;2.65;;;1.00;;
27999;SDS011;15328;50.860;10.562;2022-09-27T14:53:49;1.60;;;0.60;;
27999;SDS011;15328;50.860;10.562;2022-09-27T14:59:29;0.90;;;0.50;;
27999;SDS011;15328;50.860;10.562;2022-09-27T15:04:26;2.30;;;0.60;;
27999;SDS011;15328;50.860;10.562;2022-09-27T15:09:30;0.45;;;0.40;;
27999;SDS011;15328;50.860;10.562;2022-09-27T15:14:31;1.00;;;0.30;;
27999;SDS011;15328;50.860;10.562;2022-09-27T15:19:32;1.83;;;0.50;;
27999;SDS011;15328;50.860;10.562;2022-09-27T15:24:38;0.77;;;0.50;;
27999;SDS011;15328;50.860;10.562;2022-09-27T15:29:49;1.17;;;0.45;;
27999;SDS011;15328;50.860;10.562;2022-09-27T15:39:52;0.85;;;0.45;;
27999;SDS011;15328;50.860;10.562;2022-09-27T15:44:53;1.70;;;0.50;;
27999;SDS011;15328;50.860;10.562;2022-09-27T15:49:57;1.15;;;0.50;;
27999;SDS011;15328;50.860;10.562;2022-09-27T15:54:58;0.95;;;0.50;;
27999;SDS011;15328;50.860;10.562;2022-09-27T15:59:58;1.60;;;0.82;;
27999;SDS011;15328;50.860;10.562;2022-09-27T16:04:59;1.35;;;0.60;;
27999;SDS011;15328;50.860;10.562;2022-09-27T16:09:59;0.80;;;0.60;;
27999;SDS011;15328;50.860;10.562;2022-09-27T16:15:00;1.30;;;0.88;;
27999;SDS011;15328;50.860;10.562;2022-09-27T16:20:00;1.45;;;0.60;;
27999;SDS011;15328;50.860;10.562;2022-09-27T16:25:00;1.52;;;0.60;;
27999;SDS011;15328;50.860;10.562;2022-09-27T16:30:01;1.37;;;0.60;;
27999;SDS011;15328;50.860;10.562;2022-09-27T16:35:02;0.57;;;0.43;;
27999;SDS011;15328;50.860;10.562;2022-09-27T16:40:03;1.10;;;0.63;;
27999;SDS011;15328;50.860;10.562;2022-09-27T16:45:05;1.15;;;0.90;;
27999;SDS011;15328;50.860;10.562;2022-09-27T16:50:06;3.47;;;1.00;;
27999;SDS011;15328;50.860;10.562;2022-09-27T16:55:27;0.80;;;0.50;;
27999;SDS011;15328;50.860;10.562;2022-09-27T17:00:31;0.85;;;0.68;;
27999;SDS011;15328;50.860;10.562;2022-09-27T17:05:32;2.05;;;0.90;;
27999;SDS011;15328;50.860;10.562;2022-09-27T17:10:32;1.20;;;0.80;;
27999;SDS011;15328;50.860;10.562;2022-09-27T17:15:35;1.25;;;0.95;;
27999;SDS011;15328;50.860;10.562;2022-09-27T17:20:36;2.97;;;1.15;;
27999;SDS011;15328;50.860;10.562;2022-09-27T17:25:36;1.40;;;0.70;;
27999;SDS011;15328;50.860;10.562;2022-09-27T17:30:37;1.60;;;1.00;;
27999;SDS011;15328;50.860;10.562;2022-09-27T17:35:42;2.30;;;1.80;;
27999;SDS011;15328;50.860;10.562;2022-09-27T17:40:43;1.80;;;1.38;;
27999;SDS011;15328;50.860;10.562;2022-09-27T17:45:44;1.38;;;0.95;;
27999;SDS011;15328;50.860;10.562;2022-09-27T17:50:44;1.10;;;0.70;;
27999;SDS011;15328;50.860;10.562;2022-09-27T17:55:45;1.00;;;0.88;;
27999;SDS011;15328;50.860;10.562;2022-09-27T18:00:45;1.55;;;1.10;;
27999;SDS011;15328;50.860;10.562;2022-09-27T18:05:46;1.37;;;1.10;;
27999;SDS011;15328;50.860;10.562;2022-09-27T18:10:46;3.03;;;2.35;;
27999;SDS011;15328;50.860;10.562;2022-09-27T18:15:54;2.20;;;1.30;;
27999;SDS011;15328;50.860;10.562;2022-09-27T18:21:01;3.25;;;1.67;;
27999;SDS011;15328;50.860;10.562;2022-09-27T18:26:03;2.92;;;1.70;;
27999;SDS011;15328;50.860;10.562;2022-09-27T18:31:08;2.92;;;1.67;;
27999;SDS011;15328;50.860;10.562;2022-09-27T18:36:23;3.38;;;2.38;;
27999;SDS011;15328;50.860;10.562;2022-09-27T18:41:26;2.42;;;1.48;;
27999;SDS011;15328;50.860;10.562;2022-09-27T18:46:29;1.98;;;0.80;;
27999;SDS011;15328;50.860;10.562;2022-09-27T18:51:33;0.90;;;0.60;;
27999;SDS011;15328;50.860;10.562;2022-09-27T18:56:36;1.00;;;0.65;;
27999;SDS011;15328;50.860;10.562;2022-09-27T19:01:39;1.92;;;1.45;;
27999;SDS011;15328;50.860;10.562;2022-09-27T19:06:43;1.80;;;1.40;;
27999;SDS011;15328;50.860;10.562;2022-09-27T19:11:44;1.25;;;1.15;;
27999;SDS011;15328;50.860;10.562;2022-09-27T19:16:44;2.23;;;1.60;;
27999;SDS011;15328;50.860;10.562;2022-09-27T19:21:46;2.60;;;1.45;;
27999;SDS011;15328;50.860;10.562;2022-09-27T19:26:47;1.10;;;1.00;;
27999;SDS011;15328;50.860;10.562;2022-09-27T19:31:52;1.80;;;1.05;;
27999;SDS011;15328;50.860;10.562;2022-09-27T19:36:53;1.27;;;1.10;;
27999;SDS011;15328;50.860;10.562;2022-09-27T19:41:54;1.13;;;0.90;;
27999;SDS011;15328;50.860;10.562;2022-09-27T19:46:54;1.50;;;1.30;;
27999;SDS011;15328;50.860;10.562;2022-09-27T19:51:54;1.00;;;0.90;;
27999;SDS011;15328;50.860;10.562;2022-09-27T19:56:55;1.75;;;1.20;;
27999;SDS011;15328;50.860;10.562;2022-09-27T20:01:55;3.10;;;1.03;;
27999;SDS011;15328;50.860;10.562;2022-09-27T20:06:56;2.70;;;1.20;;
27999;SDS011;15328;50.860;10.562;2022-09-27T20:11:56;1.23;;;1.02;;
27999;SDS011;15328;50.860;10.562;2022-09-27T20:16:56;1.88;;;1.30;;
27999;SDS011;15328;50.860;10.562;2022-09-27T20:21:57;1.23;;;1.13;;
27999;SDS011;15328;50.860;10.562;2022-09-27T20:26:57;2.70;;;1.70;;
27999;SDS011;15328;50.860;10.562;2022-09-27T20:31:58;1.55;;;1.40;;
27999;SDS011;15328;50.860;10.562;2022-09-27T20:36:58;1.30;;;1.10;;
27999;SDS011;15328;50.860;10.562;2022-09-27T20:41:58;1.77;;;0.98;;
27999;SDS011;15328;50.860;10.562;2022-09-27T20:46:59;1.73;;;0.90;;
27999;SDS011;15328;50.860;10.562;2022-09-27T20:51:59;1.23;;;0.70;;
27999;SDS011;15328;50.860;10.562;2022-09-27T20:57:00;1.50;;;0.85;;
27999;SDS011;15328;50.860;10.562;2022-09-27T21:02:00;1.27;;;0.77;;
27999;SDS011;15328;50.860;10.562;2022-09-27T21:07:00;1.63;;;0.70;;
27999;SDS011;15328;50.860;10.562;2022-09-27T21:12:02;1.70;;;1.20;;
27999;SDS011;15328;50.860;10.562;2022-09-27T21:17:02;0.80;;;0.80;;
27999;SDS011;15328;50.860;10.562;2022-09-27T21:22:05;1.10;;;0.90;;
27999;SDS011;15328;50.860;10.562;2022-09-27T21:27:06;1.27;;;0.90;;
27999;SDS011;15328;50.860;10.562;2022-09-27T21:32:06;2.00;;;0.90;;
27999;SDS011;15328;50.860;10.562;2022-09-27T21:37:06;1.10;;;0.90;;
27999;SDS011;15328;50.860;10.562;2022-09-27T21:42:07;1.92;;;0.75;;
27999;SDS011;15328;50.860;10.562;2022-09-27T21:47:07;1.10;;;0.80;;
27999;SDS011;15328;50.860;10.562;2022-09-27T21:52:08;0.87;;;0.70;;
27999;SDS011;15328;50.860;10.562;2022-09-27T21:57:08;1.10;;;0.90;;
27999;SDS011;15328;50.860;10.562;2022-09-27T22:02:08;2.50;;;0.80;;
27999;SDS011;15328;50.860;10.562;2022-09-27T22:07:09;2.00;;;0.90;;
27999;SDS011;15328;50.860;10.562;2022-09-27T22:12:10;1.00;;;0.70;;
27999;SDS011;15328;50.860;10.562;2022-09-27T22:17:10;1.40;;;0.80;;
27999;SDS011;15328;50.860;10.562;2022-09-27T22:22:10;1.20;;;1.00;;
27999;SDS011;15328;50.860;10.562;2022-09-27T22:27:11;1.27;;;1.07;;
27999;SDS011;15328;50.860;10.562;2022-09-27T22:32:11;1.17;;;1.02;;
27999;SDS011;15328;50.860;10.562;2022-09-27T22:37:11;2.00;;;1.40;;
27999;SDS011;15328;50.860;10.562;2022-09-27T22:42:12;2.67;;;1.30;;
27999;SDS011;15328;50.860;10.562;2022-09-27T22:47:12;4.30;;;1.33;;
27999;SDS011;15328;50.860;10.562;2022-09-27T22:52:12;3.97;;;1.58;;
27999;SDS011;15328;50.860;10.562;2022-09-27T22:57:13;2.10;;;1.27;;
27999;SDS011;15328;50.860;10.562;2022-09-27T23:02:13;1.60;;;1.33;;
27999;SDS011;15328;50.860;10.562;2022-09-27T23:07:14;2.85;;;1.25;;
27999;SDS011;15328;50.860;10.562;2022-09-27T23:12:14;2.72;;;1.40;;
27999;SDS011;15328;50.860;10.562;2022-09-27T23:17:15;2.15;;;1.10;;
27999;SDS011;15328;50.860;10.562;2022-09-27T23:22:15;1.88;;;1.02;;
27999;SDS011;15328;50.860;10.562;2022-09-27T23:27:16;1.30;;;1.00;;
27999;SDS011;15328;50.860;10.562;2022-09-27T23:37:35;2.20;;;0.85;;
27999;SDS011;15328;50.860;10.562;2022-09-27T23:42:35;2.53;;;1.07;;
27999;SDS011;15328;50.860;10.562;2022-09-27T23:47:36;1.85;;;1.00;;
27999;SDS011;15328;50.860;10.562;2022-09-27T23:52:38;1.27;;;0.85;;
27999;SDS011;15328;50.860;10.562;2022-09-27T23:57:38;1.75;;;0.80;;
